sensor_id;sensor_type;location;lat;lon;timestamp;P1;durP1;ratioP1;P2;durP2;ratioP2
12950;SDS011;6540;50.858;7.232;2022-10-16T00:00:38;3.60;;;3.30;;
12950;SDS011;6540;50.858;7.232;2022-10-16T00:03:05;4.13;;;3.13;;
12950;SDS011;6540;50.858;7.232;2022-10-16T00:05:32;4.50;;;3.80;;
12950;SDS011;6540;50.858;7.232;2022-10-16T00:07:57;4.20;;;3.83;;
12950;SDS011;6540;50.858;7.232;2022-10-16T00:10:23;3.77;;;3.30;;
12950;SDS011;6540;50.858;7.232;2022-10-16T00:12:49;3.43;;;3.13;;
12950;SDS011;6540;50.858;7.232;2022-10-16T00:15:14;4.90;;;4.10;;
12950;SDS011;6540;50.858;7.232;2022-10-16T00:17:40;4.40;;;3.53;;
12950;SDS011;6540;50.858;7.232;2022-10-16T00:20:06;4.07;;;3.63;;
12950;SDS011;6540;50.858;7.232;2022-10-16T00:22:32;4.83;;;3.73;;
12950;SDS011;6540;50.858;7.232;2022-10-16T00:24:58;5.93;;;3.57;;
12950;SDS011;6540;50.858;7.232;2022-10-16T00:27:23;6.00;;;4.30;;
12950;SDS011;6540;50.858;7.232;2022-10-16T00:29:52;7.77;;;3.73;;
12950;SDS011;6540;50.858;7.232;2022-10-16T00:32:18;5.97;;;3.63;;
12950;SDS011;6540;50.858;7.232;2022-10-16T00:34:44;4.30;;;3.50;;
12950;SDS011;6540;50.858;7.232;2022-10-16T00:37:10;4.87;;;3.10;;
12950;SDS011;6540;50.858;7.232;2022-10-16T00:39:35;3.27;;;2.90;;
12950;SDS011;6540;50.858;7.232;2022-10-16T00:42:01;3.47;;;2.70;;
12950;SDS011;6540;50.858;7.232;2022-10-16T00:47:09;3.50;;;3.20;;
12950;SDS011;6540;50.858;7.232;2022-10-16T00:49:37;3.53;;;2.90;;
12950;SDS011;6540;50.858;7.232;2022-10-16T00:52:03;5.00;;;2.87;;
12950;SDS011;6540;50.858;7.232;2022-10-16T00:54:30;4.27;;;2.13;;
12950;SDS011;6540;50.858;7.232;2022-10-16T00:56:58;4.43;;;2.10;;
12950;SDS011;6540;50.858;7.232;2022-10-16T00:59:37;2.57;;;2.20;;
12950;SDS011;6540;50.858;7.232;2022-10-16T01:02:05;4.23;;;2.53;;
12950;SDS011;6540;50.858;7.232;2022-10-16T01:04:35;2.57;;;2.33;;
12950;SDS011;6540;50.858;7.232;2022-10-16T01:10:06;6.53;;;2.40;;
12950;SDS011;6540;50.858;7.232;2022-10-16T01:12:46;3.63;;;2.43;;
12950;SDS011;6540;50.858;7.232;2022-10-16T01:15:25;3.60;;;2.87;;
12950;SDS011;6540;50.858;7.232;2022-10-16T01:30:02;5.77;;;2.93;;
12950;SDS011;6540;50.858;7.232;2022-10-16T01:32:50;2.70;;;2.40;;
12950;SDS011;6540;50.858;7.232;2022-10-16T01:35:27;7.73;;;2.40;;
12950;SDS011;6540;50.858;7.232;2022-10-16T01:37:59;2.33;;;1.87;;
12950;SDS011;6540;50.858;7.232;2022-10-16T01:40:29;2.37;;;1.83;;
12950;SDS011;6540;50.858;7.232;2022-10-16T01:43:00;3.20;;;1.97;;
12950;SDS011;6540;50.858;7.232;2022-10-16T01:45:30;4.13;;;1.90;;
12950;SDS011;6540;50.858;7.232;2022-10-16T01:47:57;1.97;;;1.87;;
12950;SDS011;6540;50.858;7.232;2022-10-16T01:50:25;1.83;;;1.73;;
12950;SDS011;6540;50.858;7.232;2022-10-16T01:52:51;2.10;;;1.90;;
12950;SDS011;6540;50.858;7.232;2022-10-16T01:55:24;2.63;;;1.90;;
12950;SDS011;6540;50.858;7.232;2022-10-16T01:57:54;3.03;;;2.20;;
12950;SDS011;6540;50.858;7.232;2022-10-16T02:00:20;2.00;;;1.90;;
12950;SDS011;6540;50.858;7.232;2022-10-16T02:02:48;3.83;;;2.67;;
12950;SDS011;6540;50.858;7.232;2022-10-16T02:05:22;2.20;;;2.00;;
12950;SDS011;6540;50.858;7.232;2022-10-16T02:07:53;3.07;;;2.67;;
12950;SDS011;6540;50.858;7.232;2022-10-16T02:10:19;2.30;;;2.10;;
12950;SDS011;6540;50.858;7.232;2022-10-16T02:12:47;2.67;;;2.23;;
12950;SDS011;6540;50.858;7.232;2022-10-16T02:15:16;2.50;;;2.30;;
12950;SDS011;6540;50.858;7.232;2022-10-16T02:17:41;6.00;;;2.60;;
12950;SDS011;6540;50.858;7.232;2022-10-16T02:20:06;2.57;;;2.37;;
12950;SDS011;6540;50.858;7.232;2022-10-16T02:22:34;2.60;;;2.40;;
12950;SDS011;6540;50.858;7.232;2022-10-16T02:27:55;3.03;;;2.83;;
12950;SDS011;6540;50.858;7.232;2022-10-16T02:33:10;2.70;;;2.50;;
12950;SDS011;6540;50.858;7.232;2022-10-16T02:35:38;2.60;;;2.40;;
12950;SDS011;6540;50.858;7.232;2022-10-16T02:38:06;3.17;;;2.87;;
12950;SDS011;6540;50.858;7.232;2022-10-16T02:40:33;3.30;;;2.97;;
12950;SDS011;6540;50.858;7.232;2022-10-16T02:42:58;5.87;;;2.70;;
12950;SDS011;6540;50.858;7.232;2022-10-16T02:45:24;2.83;;;2.63;;
12950;SDS011;6540;50.858;7.232;2022-10-16T02:47:50;3.17;;;2.80;;
12950;SDS011;6540;50.858;7.232;2022-10-16T02:50:15;3.63;;;2.63;;
12950;SDS011;6540;50.858;7.232;2022-10-16T02:52:41;7.33;;;3.50;;
12950;SDS011;6540;50.858;7.232;2022-10-16T02:55:06;6.20;;;2.83;;
12950;SDS011;6540;50.858;7.232;2022-10-16T02:57:32;7.63;;;2.80;;
12950;SDS011;6540;50.858;7.232;2022-10-16T02:59:57;3.03;;;2.70;;
12950;SDS011;6540;50.858;7.232;2022-10-16T03:02:23;2.87;;;2.67;;
12950;SDS011;6540;50.858;7.232;2022-10-16T03:04:48;4.93;;;2.77;;
12950;SDS011;6540;50.858;7.232;2022-10-16T03:07:13;5.20;;;3.00;;
12950;SDS011;6540;50.858;7.232;2022-10-16T03:09:39;5.03;;;2.60;;
12950;SDS011;6540;50.858;7.232;2022-10-16T03:12:04;3.03;;;2.73;;
12950;SDS011;6540;50.858;7.232;2022-10-16T03:14:29;4.33;;;2.87;;
12950;SDS011;6540;50.858;7.232;2022-10-16T03:16:55;3.50;;;3.20;;
12950;SDS011;6540;50.858;7.232;2022-10-16T03:19:20;3.83;;;2.53;;
12950;SDS011;6540;50.858;7.232;2022-10-16T03:21:46;3.23;;;2.97;;
12950;SDS011;6540;50.858;7.232;2022-10-16T03:24:11;3.80;;;3.40;;
12950;SDS011;6540;50.858;7.232;2022-10-16T03:26:36;5.57;;;2.77;;
12950;SDS011;6540;50.858;7.232;2022-10-16T03:29:02;5.93;;;3.80;;
12950;SDS011;6540;50.858;7.232;2022-10-16T03:31:28;2.70;;;2.50;;
12950;SDS011;6540;50.858;7.232;2022-10-16T03:33:54;3.60;;;3.27;;
12950;SDS011;6540;50.858;7.232;2022-10-16T03:36:19;3.27;;;2.93;;
12950;SDS011;6540;50.858;7.232;2022-10-16T03:38:44;3.70;;;3.40;;
12950;SDS011;6540;50.858;7.232;2022-10-16T03:41:10;3.40;;;3.10;;
12950;SDS011;6540;50.858;7.232;2022-10-16T03:43:35;2.90;;;2.67;;
12950;SDS011;6540;50.858;7.232;2022-10-16T03:46:00;2.97;;;2.77;;
12950;SDS011;6540;50.858;7.232;2022-10-16T03:48:26;2.90;;;2.60;;
12950;SDS011;6540;50.858;7.232;2022-10-16T03:50:51;3.33;;;3.13;;
12950;SDS011;6540;50.858;7.232;2022-10-16T03:53:17;3.03;;;2.63;;
12950;SDS011;6540;50.858;7.232;2022-10-16T03:55:43;3.33;;;3.03;;
12950;SDS011;6540;50.858;7.232;2022-10-16T03:58:09;3.33;;;2.83;;
12950;SDS011;6540;50.858;7.232;2022-10-16T04:00:35;3.90;;;2.23;;
12950;SDS011;6540;50.858;7.232;2022-10-16T04:03:00;3.57;;;2.87;;
12950;SDS011;6540;50.858;7.232;2022-10-16T04:05:26;7.03;;;3.03;;
12950;SDS011;6540;50.858;7.232;2022-10-16T04:07:51;5.13;;;3.10;;
12950;SDS011;6540;50.858;7.232;2022-10-16T04:10:17;2.63;;;2.43;;
12950;SDS011;6540;50.858;7.232;2022-10-16T04:12:42;3.10;;;2.80;;
12950;SDS011;6540;50.858;7.232;2022-10-16T04:15:07;3.27;;;2.70;;
12950;SDS011;6540;50.858;7.232;2022-10-16T04:17:33;3.33;;;2.97;;
12950;SDS011;6540;50.858;7.232;2022-10-16T04:19:58;4.70;;;3.47;;
12950;SDS011;6540;50.858;7.232;2022-10-16T04:22:24;3.63;;;2.80;;
12950;SDS011;6540;50.858;7.232;2022-10-16T04:24:49;3.27;;;2.97;;
12950;SDS011;6540;50.858;7.232;2022-10-16T04:27:15;3.20;;;2.90;;
12950;SDS011;6540;50.858;7.232;2022-10-16T04:29:40;3.83;;;2.67;;
12950;SDS011;6540;50.858;7.232;2022-10-16T04:32:06;3.87;;;3.30;;
12950;SDS011;6540;50.858;7.232;2022-10-16T04:34:33;3.93;;;3.00;;
12950;SDS011;6540;50.858;7.232;2022-10-16T04:36:59;3.03;;;2.73;;
12950;SDS011;6540;50.858;7.232;2022-10-16T04:39:25;5.17;;;3.03;;
12950;SDS011;6540;50.858;7.232;2022-10-16T04:41:50;3.67;;;3.23;;
12950;SDS011;6540;50.858;7.232;2022-10-16T04:44:15;6.07;;;3.13;;
12950;SDS011;6540;50.858;7.232;2022-10-16T04:46:41;3.53;;;3.13;;
12950;SDS011;6540;50.858;7.232;2022-10-16T04:49:06;5.37;;;3.30;;
12950;SDS011;6540;50.858;7.232;2022-10-16T04:51:31;3.27;;;3.03;;
12950;SDS011;6540;50.858;7.232;2022-10-16T04:53:57;3.33;;;2.80;;
12950;SDS011;6540;50.858;7.232;2022-10-16T04:56:22;7.67;;;3.73;;
12950;SDS011;6540;50.858;7.232;2022-10-16T04:58:48;4.40;;;3.20;;
12950;SDS011;6540;50.858;7.232;2022-10-16T05:01:13;3.03;;;2.80;;
12950;SDS011;6540;50.858;7.232;2022-10-16T05:03:38;3.23;;;2.97;;
12950;SDS011;6540;50.858;7.232;2022-10-16T05:06:07;3.40;;;3.10;;
12950;SDS011;6540;50.858;7.232;2022-10-16T05:08:32;4.90;;;3.17;;
12950;SDS011;6540;50.858;7.232;2022-10-16T05:10:58;3.30;;;2.70;;
12950;SDS011;6540;50.858;7.232;2022-10-16T05:13:23;5.07;;;2.83;;
12950;SDS011;6540;50.858;7.232;2022-10-16T05:15:49;4.87;;;4.47;;
12950;SDS011;6540;50.858;7.232;2022-10-16T05:18:14;3.80;;;3.50;;
12950;SDS011;6540;50.858;7.232;2022-10-16T05:20:41;3.33;;;3.10;;
12950;SDS011;6540;50.858;7.232;2022-10-16T05:23:06;5.10;;;3.07;;
12950;SDS011;6540;50.858;7.232;2022-10-16T05:25:32;3.83;;;3.53;;
12950;SDS011;6540;50.858;7.232;2022-10-16T05:27:57;4.00;;;3.60;;
12950;SDS011;6540;50.858;7.232;2022-10-16T05:30:23;4.20;;;3.80;;
12950;SDS011;6540;50.858;7.232;2022-10-16T05:32:49;6.47;;;5.87;;
12950;SDS011;6540;50.858;7.232;2022-10-16T05:35:16;6.83;;;6.07;;
12950;SDS011;6540;50.858;7.232;2022-10-16T05:37:42;6.80;;;6.20;;
12950;SDS011;6540;50.858;7.232;2022-10-16T05:40:08;7.30;;;6.60;;
12950;SDS011;6540;50.858;7.232;2022-10-16T05:42:34;9.90;;;8.90;;
12950;SDS011;6540;50.858;7.232;2022-10-16T05:44:59;7.20;;;6.50;;
12950;SDS011;6540;50.858;7.232;2022-10-16T05:47:25;4.77;;;4.27;;
12950;SDS011;6540;50.858;7.232;2022-10-16T05:49:51;5.47;;;3.90;;
12950;SDS011;6540;50.858;7.232;2022-10-16T05:52:16;4.83;;;3.33;;
12950;SDS011;6540;50.858;7.232;2022-10-16T05:54:42;4.63;;;3.33;;
12950;SDS011;6540;50.858;7.232;2022-10-16T05:57:07;20.27;;;15.73;;
12950;SDS011;6540;50.858;7.232;2022-10-16T05:59:33;11.07;;;9.50;;
12950;SDS011;6540;50.858;7.232;2022-10-16T06:01:58;14.50;;;9.70;;
12950;SDS011;6540;50.858;7.232;2022-10-16T06:04:23;12.63;;;7.40;;
12950;SDS011;6540;50.858;7.232;2022-10-16T06:06:49;7.90;;;4.03;;
12950;SDS011;6540;50.858;7.232;2022-10-16T06:09:14;6.03;;;3.83;;
12950;SDS011;6540;50.858;7.232;2022-10-16T06:11:39;3.20;;;2.90;;
12950;SDS011;6540;50.858;7.232;2022-10-16T06:14:05;3.00;;;2.60;;
12950;SDS011;6540;50.858;7.232;2022-10-16T06:16:34;5.27;;;2.47;;
12950;SDS011;6540;50.858;7.232;2022-10-16T06:19:00;6.73;;;4.10;;
12950;SDS011;6540;50.858;7.232;2022-10-16T06:21:26;6.37;;;4.00;;
12950;SDS011;6540;50.858;7.232;2022-10-16T06:23:53;5.20;;;3.67;;
12950;SDS011;6540;50.858;7.232;2022-10-16T06:26:20;4.77;;;3.10;;
12950;SDS011;6540;50.858;7.232;2022-10-16T06:28:47;3.83;;;3.00;;
12950;SDS011;6540;50.858;7.232;2022-10-16T06:31:13;3.17;;;2.23;;
12950;SDS011;6540;50.858;7.232;2022-10-16T06:33:39;3.20;;;2.90;;
12950;SDS011;6540;50.858;7.232;2022-10-16T06:36:05;4.13;;;3.73;;
12950;SDS011;6540;50.858;7.232;2022-10-16T06:38:36;5.70;;;4.10;;
12950;SDS011;6540;50.858;7.232;2022-10-16T06:41:02;3.17;;;2.60;;
12950;SDS011;6540;50.858;7.232;2022-10-16T06:43:29;2.83;;;2.60;;
12950;SDS011;6540;50.858;7.232;2022-10-16T06:45:58;3.40;;;2.97;;
12950;SDS011;6540;50.858;7.232;2022-10-16T06:48:25;4.07;;;3.27;;
12950;SDS011;6540;50.858;7.232;2022-10-16T06:53:42;3.03;;;2.73;;
12950;SDS011;6540;50.858;7.232;2022-10-16T06:56:16;4.53;;;2.87;;
12950;SDS011;6540;50.858;7.232;2022-10-16T06:58:43;6.70;;;2.60;;
12950;SDS011;6540;50.858;7.232;2022-10-16T07:01:09;4.27;;;2.43;;
12950;SDS011;6540;50.858;7.232;2022-10-16T07:03:36;6.23;;;3.03;;
12950;SDS011;6540;50.858;7.232;2022-10-16T07:06:03;2.90;;;2.70;;
12950;SDS011;6540;50.858;7.232;2022-10-16T07:08:33;4.43;;;2.67;;
12950;SDS011;6540;50.858;7.232;2022-10-16T07:11:03;3.07;;;2.60;;
12950;SDS011;6540;50.858;7.232;2022-10-16T07:13:30;3.17;;;2.87;;
12950;SDS011;6540;50.858;7.232;2022-10-16T07:15:57;5.57;;;2.87;;
12950;SDS011;6540;50.858;7.232;2022-10-16T07:18:23;3.53;;;2.73;;
12950;SDS011;6540;50.858;7.232;2022-10-16T07:20:51;3.50;;;3.20;;
12950;SDS011;6540;50.858;7.232;2022-10-16T07:23:16;2.77;;;2.57;;
12950;SDS011;6540;50.858;7.232;2022-10-16T07:25:42;7.00;;;2.67;;
12950;SDS011;6540;50.858;7.232;2022-10-16T07:28:07;3.70;;;3.13;;
12950;SDS011;6540;50.858;7.232;2022-10-16T07:30:34;3.43;;;2.70;;
12950;SDS011;6540;50.858;7.232;2022-10-16T07:33:01;3.23;;;2.93;;
12950;SDS011;6540;50.858;7.232;2022-10-16T07:35:27;3.17;;;2.97;;
12950;SDS011;6540;50.858;7.232;2022-10-16T07:37:52;3.53;;;3.20;;
12950;SDS011;6540;50.858;7.232;2022-10-16T07:40:18;3.03;;;2.47;;
12950;SDS011;6540;50.858;7.232;2022-10-16T07:42:43;3.60;;;3.07;;
12950;SDS011;6540;50.858;7.232;2022-10-16T07:45:08;5.73;;;2.50;;
12950;SDS011;6540;50.858;7.232;2022-10-16T07:47:34;9.40;;;2.63;;
12950;SDS011;6540;50.858;7.232;2022-10-16T07:49:59;4.00;;;2.40;;
12950;SDS011;6540;50.858;7.232;2022-10-16T07:52:24;5.17;;;3.07;;
12950;SDS011;6540;50.858;7.232;2022-10-16T07:54:50;3.03;;;2.40;;
12950;SDS011;6540;50.858;7.232;2022-10-16T07:57:15;4.73;;;2.50;;
12950;SDS011;6540;50.858;7.232;2022-10-16T07:59:44;5.73;;;3.10;;
12950;SDS011;6540;50.858;7.232;2022-10-16T08:02:11;4.60;;;3.13;;
12950;SDS011;6540;50.858;7.232;2022-10-16T08:04:36;7.17;;;3.20;;
12950;SDS011;6540;50.858;7.232;2022-10-16T08:07:01;3.30;;;3.00;;
12950;SDS011;6540;50.858;7.232;2022-10-16T08:09:27;6.07;;;2.67;;
12950;SDS011;6540;50.858;7.232;2022-10-16T08:11:52;4.80;;;2.40;;
12950;SDS011;6540;50.858;7.232;2022-10-16T08:14:18;2.90;;;2.70;;
12950;SDS011;6540;50.858;7.232;2022-10-16T08:16:43;7.50;;;2.97;;
12950;SDS011;6540;50.858;7.232;2022-10-16T08:19:08;3.87;;;2.73;;
12950;SDS011;6540;50.858;7.232;2022-10-16T08:21:34;3.17;;;2.87;;
12950;SDS011;6540;50.858;7.232;2022-10-16T08:23:59;6.40;;;3.10;;
12950;SDS011;6540;50.858;7.232;2022-10-16T08:26:26;6.83;;;2.87;;
12950;SDS011;6540;50.858;7.232;2022-10-16T08:28:51;5.10;;;3.30;;
12950;SDS011;6540;50.858;7.232;2022-10-16T08:31:17;3.60;;;3.03;;
12950;SDS011;6540;50.858;7.232;2022-10-16T08:33:43;3.87;;;3.53;;
12950;SDS011;6540;50.858;7.232;2022-10-16T08:36:11;3.70;;;3.40;;
12950;SDS011;6540;50.858;7.232;2022-10-16T08:38:37;3.47;;;3.17;;
12950;SDS011;6540;50.858;7.232;2022-10-16T08:44:12;3.70;;;3.40;;
12950;SDS011;6540;50.858;7.232;2022-10-16T08:47:06;3.47;;;3.17;;
12950;SDS011;6540;50.858;7.232;2022-10-16T08:49:35;3.27;;;2.73;;
12950;SDS011;6540;50.858;7.232;2022-10-16T08:52:02;2.93;;;2.40;;
12950;SDS011;6540;50.858;7.232;2022-10-16T08:54:32;5.30;;;2.73;;
12950;SDS011;6540;50.858;7.232;2022-10-16T08:59:36;3.37;;;2.43;;
12950;SDS011;6540;50.858;7.232;2022-10-16T09:02:01;3.07;;;2.60;;
12950;SDS011;6540;50.858;7.232;2022-10-16T09:15:35;1.50;;;1.40;;
12950;SDS011;6540;50.858;7.232;2022-10-16T09:20:40;3.03;;;1.17;;
12950;SDS011;6540;50.858;7.232;2022-10-16T09:23:18;1.30;;;1.20;;
12950;SDS011;6540;50.858;7.232;2022-10-16T09:25:50;1.17;;;1.17;;
12950;SDS011;6540;50.858;7.232;2022-10-16T09:28:17;1.07;;;1.03;;
12950;SDS011;6540;50.858;7.232;2022-10-16T09:30:43;1.03;;;1.03;;
12950;SDS011;6540;50.858;7.232;2022-10-16T09:33:10;0.90;;;0.90;;
12950;SDS011;6540;50.858;7.232;2022-10-16T09:38:05;1.90;;;1.30;;
12950;SDS011;6540;50.858;7.232;2022-10-16T09:43:20;1.30;;;1.20;;
12950;SDS011;6540;50.858;7.232;2022-10-16T09:45:53;1.90;;;1.00;;
12950;SDS011;6540;50.858;7.232;2022-10-16T09:48:20;0.97;;;0.97;;
12950;SDS011;6540;50.858;7.232;2022-10-16T09:50:55;2.63;;;0.90;;
12950;SDS011;6540;50.858;7.232;2022-10-16T09:53:21;1.60;;;1.13;;
12950;SDS011;6540;50.858;7.232;2022-10-16T09:55:51;1.50;;;1.37;;
12950;SDS011;6540;50.858;7.232;2022-10-16T09:58:21;1.53;;;0.90;;
12950;SDS011;6540;50.858;7.232;2022-10-16T10:00:52;0.87;;;0.87;;
12950;SDS011;6540;50.858;7.232;2022-10-16T10:03:40;1.33;;;1.10;;
12950;SDS011;6540;50.858;7.232;2022-10-16T10:06:28;1.20;;;1.10;;
12950;SDS011;6540;50.858;7.232;2022-10-16T10:09:06;1.07;;;0.97;;
12950;SDS011;6540;50.858;7.232;2022-10-16T10:12:00;1.67;;;1.20;;
12950;SDS011;6540;50.858;7.232;2022-10-16T10:14:35;0.87;;;0.87;;
12950;SDS011;6540;50.858;7.232;2022-10-16T10:22:16;1.17;;;1.03;;
12950;SDS011;6540;50.858;7.232;2022-10-16T10:24:43;1.10;;;0.83;;
12950;SDS011;6540;50.858;7.232;2022-10-16T10:27:11;0.80;;;0.80;;
12950;SDS011;6540;50.858;7.232;2022-10-16T10:42:55;0.60;;;0.60;;
12950;SDS011;6540;50.858;7.232;2022-10-16T10:45:45;1.90;;;0.93;;
12950;SDS011;6540;50.858;7.232;2022-10-16T10:48:16;0.57;;;0.57;;
12950;SDS011;6540;50.858;7.232;2022-10-16T10:50:56;2.23;;;0.80;;
12950;SDS011;6540;50.858;7.232;2022-10-16T11:01:45;0.77;;;0.57;;
12950;SDS011;6540;50.858;7.232;2022-10-16T11:07:05;4.10;;;0.97;;
12950;SDS011;6540;50.858;7.232;2022-10-16T11:09:51;1.77;;;1.07;;
12950;SDS011;6540;50.858;7.232;2022-10-16T11:12:24;0.50;;;0.50;;
12950;SDS011;6540;50.858;7.232;2022-10-16T11:17:27;0.50;;;0.50;;
12950;SDS011;6540;50.858;7.232;2022-10-16T11:19:58;0.77;;;0.50;;
12950;SDS011;6540;50.858;7.232;2022-10-16T11:25:21;1.50;;;1.00;;
12950;SDS011;6540;50.858;7.232;2022-10-16T11:30:55;0.97;;;0.90;;
12950;SDS011;6540;50.858;7.232;2022-10-16T11:33:32;1.17;;;0.50;;
12950;SDS011;6540;50.858;7.232;2022-10-16T11:36:02;1.03;;;0.70;;
12950;SDS011;6540;50.858;7.232;2022-10-16T11:41:03;1.67;;;0.40;;
12950;SDS011;6540;50.858;7.232;2022-10-16T11:46:49;0.87;;;0.60;;
12950;SDS011;6540;50.858;7.232;2022-10-16T11:49:24;0.83;;;0.63;;
12950;SDS011;6540;50.858;7.232;2022-10-16T11:51:57;0.60;;;0.60;;
12950;SDS011;6540;50.858;7.232;2022-10-16T11:57:23;0.50;;;0.50;;
12950;SDS011;6540;50.858;7.232;2022-10-16T11:59:58;0.83;;;0.70;;
12950;SDS011;6540;50.858;7.232;2022-10-16T12:05:11;1.57;;;0.57;;
12950;SDS011;6540;50.858;7.232;2022-10-16T12:07:47;2.17;;;0.63;;
12950;SDS011;6540;50.858;7.232;2022-10-16T12:10:24;0.70;;;0.67;;
12950;SDS011;6540;50.858;7.232;2022-10-16T12:12:52;0.40;;;0.40;;
12950;SDS011;6540;50.858;7.232;2022-10-16T12:15:36;0.83;;;0.70;;
12950;SDS011;6540;50.858;7.232;2022-10-16T12:18:01;10.47;;;1.37;;
12950;SDS011;6540;50.858;7.232;2022-10-16T12:20:31;1.87;;;1.00;;
12950;SDS011;6540;50.858;7.232;2022-10-16T12:23:00;0.70;;;0.70;;
12950;SDS011;6540;50.858;7.232;2022-10-16T12:25:31;0.87;;;0.70;;
12950;SDS011;6540;50.858;7.232;2022-10-16T12:28:04;0.80;;;0.80;;
12950;SDS011;6540;50.858;7.232;2022-10-16T12:30:33;0.40;;;0.40;;
12950;SDS011;6540;50.858;7.232;2022-10-16T12:33:04;1.67;;;0.73;;
12950;SDS011;6540;50.858;7.232;2022-10-16T12:35:43;4.00;;;0.83;;
12950;SDS011;6540;50.858;7.232;2022-10-16T12:41:11;1.00;;;0.80;;
12950;SDS011;6540;50.858;7.232;2022-10-16T12:48:39;0.90;;;0.60;;
12950;SDS011;6540;50.858;7.232;2022-10-16T12:51:21;0.80;;;0.80;;
12950;SDS011;6540;50.858;7.232;2022-10-16T12:54:00;1.20;;;0.60;;
12950;SDS011;6540;50.858;7.232;2022-10-16T12:56:32;0.80;;;0.60;;
12950;SDS011;6540;50.858;7.232;2022-10-16T12:59:09;0.30;;;0.30;;
12950;SDS011;6540;50.858;7.232;2022-10-16T13:15:12;1.03;;;0.83;;
12950;SDS011;6540;50.858;7.232;2022-10-16T13:17:51;4.67;;;1.17;;
12950;SDS011;6540;50.858;7.232;2022-10-16T13:23:19;0.83;;;0.60;;
12950;SDS011;6540;50.858;7.232;2022-10-16T13:28:47;0.37;;;0.37;;
12950;SDS011;6540;50.858;7.232;2022-10-16T13:31:14;2.93;;;0.57;;
12950;SDS011;6540;50.858;7.232;2022-10-16T13:33:45;0.73;;;0.70;;
12950;SDS011;6540;50.858;7.232;2022-10-16T13:36:23;1.67;;;0.60;;
12950;SDS011;6540;50.858;7.232;2022-10-16T13:41:40;1.60;;;0.80;;
12950;SDS011;6540;50.858;7.232;2022-10-16T13:44:09;0.53;;;0.53;;
12950;SDS011;6540;50.858;7.232;2022-10-16T13:46:39;0.67;;;0.67;;
12950;SDS011;6540;50.858;7.232;2022-10-16T13:49:05;0.50;;;0.50;;
12950;SDS011;6540;50.858;7.232;2022-10-16T13:51:37;8.13;;;1.50;;
12950;SDS011;6540;50.858;7.232;2022-10-16T13:54:03;0.80;;;0.80;;
12950;SDS011;6540;50.858;7.232;2022-10-16T13:56:29;0.93;;;0.93;;
12950;SDS011;6540;50.858;7.232;2022-10-16T13:59:22;1.27;;;1.17;;
12950;SDS011;6540;50.858;7.232;2022-10-16T14:01:54;0.80;;;0.80;;
12950;SDS011;6540;50.858;7.232;2022-10-16T14:04:22;2.67;;;0.70;;
12950;SDS011;6540;50.858;7.232;2022-10-16T14:06:49;2.00;;;0.80;;
12950;SDS011;6540;50.858;7.232;2022-10-16T14:09:28;0.73;;;0.73;;
12950;SDS011;6540;50.858;7.232;2022-10-16T14:11:56;0.90;;;0.80;;
12950;SDS011;6540;50.858;7.232;2022-10-16T14:14:25;0.70;;;0.70;;
12950;SDS011;6540;50.858;7.232;2022-10-16T14:16:55;1.60;;;0.60;;
12950;SDS011;6540;50.858;7.232;2022-10-16T14:19:22;1.03;;;1.00;;
12950;SDS011;6540;50.858;7.232;2022-10-16T14:21:53;1.67;;;0.90;;
12950;SDS011;6540;50.858;7.232;2022-10-16T14:24:22;0.90;;;0.90;;
12950;SDS011;6540;50.858;7.232;2022-10-16T14:26:49;0.87;;;0.87;;
12950;SDS011;6540;50.858;7.232;2022-10-16T14:29:17;0.80;;;0.80;;
12950;SDS011;6540;50.858;7.232;2022-10-16T14:34:52;2.63;;;0.90;;
12950;SDS011;6540;50.858;7.232;2022-10-16T14:37:23;1.40;;;1.07;;
12950;SDS011;6540;50.858;7.232;2022-10-16T14:39:50;1.00;;;0.90;;
12950;SDS011;6540;50.858;7.232;2022-10-16T14:42:18;0.57;;;0.53;;
12950;SDS011;6540;50.858;7.232;2022-10-16T14:44:45;2.00;;;0.80;;
12950;SDS011;6540;50.858;7.232;2022-10-16T14:47:17;1.20;;;1.10;;
12950;SDS011;6540;50.858;7.232;2022-10-16T14:49:49;3.80;;;1.40;;
12950;SDS011;6540;50.858;7.232;2022-10-16T14:52:15;1.20;;;1.10;;
12950;SDS011;6540;50.858;7.232;2022-10-16T14:54:41;1.30;;;1.20;;
12950;SDS011;6540;50.858;7.232;2022-10-16T14:57:14;1.90;;;1.40;;
12950;SDS011;6540;50.858;7.232;2022-10-16T14:59:42;2.57;;;1.20;;
12950;SDS011;6540;50.858;7.232;2022-10-16T15:02:25;2.43;;;1.27;;
12950;SDS011;6540;50.858;7.232;2022-10-16T15:04:54;1.73;;;1.37;;
12950;SDS011;6540;50.858;7.232;2022-10-16T15:07:19;2.40;;;1.30;;
12950;SDS011;6540;50.858;7.232;2022-10-16T15:09:44;1.17;;;1.17;;
12950;SDS011;6540;50.858;7.232;2022-10-16T15:12:10;1.07;;;0.90;;
12950;SDS011;6540;50.858;7.232;2022-10-16T15:14:35;0.73;;;0.53;;
12950;SDS011;6540;50.858;7.232;2022-10-16T15:17:01;4.77;;;2.90;;
12950;SDS011;6540;50.858;7.232;2022-10-16T15:19:27;2.57;;;2.30;;
12950;SDS011;6540;50.858;7.232;2022-10-16T15:21:52;2.53;;;2.27;;
12950;SDS011;6540;50.858;7.232;2022-10-16T15:24:17;1.40;;;1.30;;
12950;SDS011;6540;50.858;7.232;2022-10-16T15:26:43;1.50;;;1.40;;
12950;SDS011;6540;50.858;7.232;2022-10-16T15:29:10;1.33;;;1.20;;
12950;SDS011;6540;50.858;7.232;2022-10-16T15:31:36;1.60;;;1.10;;
12950;SDS011;6540;50.858;7.232;2022-10-16T15:34:02;2.83;;;0.83;;
12950;SDS011;6540;50.858;7.232;2022-10-16T15:36:30;3.10;;;1.20;;
12950;SDS011;6540;50.858;7.232;2022-10-16T15:41:40;0.83;;;0.83;;
12950;SDS011;6540;50.858;7.232;2022-10-16T15:44:06;1.50;;;0.77;;
12950;SDS011;6540;50.858;7.232;2022-10-16T15:46:32;4.00;;;2.40;;
12950;SDS011;6540;50.858;7.232;2022-10-16T15:48:58;1.80;;;1.70;;
12950;SDS011;6540;50.858;7.232;2022-10-16T15:51:25;3.53;;;2.37;;
12950;SDS011;6540;50.858;7.232;2022-10-16T15:53:53;2.93;;;2.63;;
12950;SDS011;6540;50.858;7.232;2022-10-16T15:56:19;3.40;;;2.83;;
12950;SDS011;6540;50.858;7.232;2022-10-16T15:58:44;3.63;;;3.30;;
12950;SDS011;6540;50.858;7.232;2022-10-16T16:01:10;3.73;;;2.73;;
12950;SDS011;6540;50.858;7.232;2022-10-16T16:03:37;6.73;;;3.97;;
12950;SDS011;6540;50.858;7.232;2022-10-16T16:06:06;3.10;;;2.80;;
12950;SDS011;6540;50.858;7.232;2022-10-16T16:08:33;4.60;;;2.53;;
12950;SDS011;6540;50.858;7.232;2022-10-16T16:11:00;2.43;;;2.23;;
12950;SDS011;6540;50.858;7.232;2022-10-16T16:13:27;2.70;;;2.23;;
12950;SDS011;6540;50.858;7.232;2022-10-16T16:15:53;1.80;;;1.70;;
12950;SDS011;6540;50.858;7.232;2022-10-16T16:18:18;1.67;;;1.47;;
12950;SDS011;6540;50.858;7.232;2022-10-16T16:20:44;4.77;;;2.73;;
12950;SDS011;6540;50.858;7.232;2022-10-16T16:23:09;2.97;;;1.80;;
12950;SDS011;6540;50.858;7.232;2022-10-16T16:25:34;2.10;;;1.50;;
12950;SDS011;6540;50.858;7.232;2022-10-16T16:28:00;2.43;;;1.40;;
12950;SDS011;6540;50.858;7.232;2022-10-16T16:30:25;2.47;;;1.67;;
12950;SDS011;6540;50.858;7.232;2022-10-16T16:32:51;1.77;;;1.67;;
12950;SDS011;6540;50.858;7.232;2022-10-16T16:35:16;2.97;;;1.80;;
12950;SDS011;6540;50.858;7.232;2022-10-16T16:37:41;3.17;;;1.77;;
12950;SDS011;6540;50.858;7.232;2022-10-16T16:40:07;3.67;;;1.80;;
12950;SDS011;6540;50.858;7.232;2022-10-16T16:42:32;1.53;;;1.43;;
12950;SDS011;6540;50.858;7.232;2022-10-16T16:44:58;37.20;;;4.60;;
12950;SDS011;6540;50.858;7.232;2022-10-16T16:47:23;1.40;;;1.30;;
12950;SDS011;6540;50.858;7.232;2022-10-16T16:49:48;2.43;;;1.20;;
12950;SDS011;6540;50.858;7.232;2022-10-16T16:52:14;1.60;;;1.40;;
12950;SDS011;6540;50.858;7.232;2022-10-16T16:54:40;3.90;;;1.13;;
12950;SDS011;6540;50.858;7.232;2022-10-16T16:57:05;2.93;;;1.50;;
12950;SDS011;6540;50.858;7.232;2022-10-16T16:59:31;4.13;;;1.50;;
12950;SDS011;6540;50.858;7.232;2022-10-16T17:01:59;2.63;;;1.40;;
12950;SDS011;6540;50.858;7.232;2022-10-16T17:04:25;1.83;;;1.50;;
12950;SDS011;6540;50.858;7.232;2022-10-16T17:06:51;5.33;;;1.57;;
12950;SDS011;6540;50.858;7.232;2022-10-16T17:09:18;2.40;;;1.20;;
12950;SDS011;6540;50.858;7.232;2022-10-16T17:11:43;1.47;;;1.20;;
12950;SDS011;6540;50.858;7.232;2022-10-16T17:14:09;1.50;;;1.27;;
12950;SDS011;6540;50.858;7.232;2022-10-16T17:16:36;2.80;;;1.50;;
12950;SDS011;6540;50.858;7.232;2022-10-16T17:19:03;1.30;;;1.20;;
12950;SDS011;6540;50.858;7.232;2022-10-16T17:21:34;2.17;;;1.30;;